sensor_id;sensor_type;location;lat;lon;timestamp;P1;durP1;ratioP1;P2;durP2;ratioP2
17790;SDS011;9019;48.132;-1.210;2023-04-24T00:01:22;8.30;;;4.27;;
17790;SDS011;9019;48.132;-1.210;2023-04-24T00:03:49;8.10;;;4.27;;
17790;SDS011;9019;48.132;-1.210;2023-04-24T00:06:17;8.87;;;4.27;;
17790;SDS011;9019;48.132;-1.210;2023-04-24T00:08:44;6.23;;;4.30;;
17790;SDS011;9019;48.132;-1.210;2023-04-24T00:11:11;8.57;;;4.63;;
17790;SDS011;9019;48.132;-1.210;2023-04-24T00:13:40;9.33;;;4.20;;
17790;SDS011;9019;48.132;-1.210;2023-04-24T00:16:07;8.70;;;4.10;;
17790;SDS011;9019;48.132;-1.210;2023-04-24T00:18:34;7.33;;;3.90;;
17790;SDS011;9019;48.132;-1.210;2023-04-24T00:21:01;9.07;;;4.37;;
17790;SDS011;9019;48.132;-1.210;2023-04-24T00:23:28;4.57;;;2.80;;
17790;SDS011;9019;48.132;-1.210;2023-04-24T00:25:55;5.63;;;2.90;;
17790;SDS011;9019;48.132;-1.210;2023-04-24T00:28:23;5.17;;;2.80;;
17790;SDS011;9019;48.132;-1.210;2023-04-24T00:30:51;6.03;;;2.90;;
17790;SDS011;9019;48.132;-1.210;2023-04-24T00:33:18;6.43;;;3.53;;
17790;SDS011;9019;48.132;-1.210;2023-04-24T00:35:46;6.27;;;2.97;;
17790;SDS011;9019;48.132;-1.210;2023-04-24T00:38:13;7.13;;;3.13;;
17790;SDS011;9019;48.132;-1.210;2023-04-24T00:40:40;5.47;;;3.30;;
17790;SDS011;9019;48.132;-1.210;2023-04-24T00:43:07;6.23;;;3.10;;
17790;SDS011;9019;48.132;-1.210;2023-04-24T00:45:34;6.27;;;3.87;;
17790;SDS011;9019;48.132;-1.210;2023-04-24T00:48:03;4.80;;;3.20;;
17790;SDS011;9019;48.132;-1.210;2023-04-24T00:50:30;6.63;;;3.43;;
17790;SDS011;9019;48.132;-1.210;2023-04-24T00:52:58;6.00;;;3.43;;
17790;SDS011;9019;48.132;-1.210;2023-04-24T00:55:25;4.50;;;3.20;;
17790;SDS011;9019;48.132;-1.210;2023-04-24T00:57:53;7.97;;;3.40;;
17790;SDS011;9019;48.132;-1.210;2023-04-24T01:00:20;5.87;;;3.03;;
17790;SDS011;9019;48.132;-1.210;2023-04-24T01:02:47;5.93;;;3.47;;
17790;SDS011;9019;48.132;-1.210;2023-04-24T01:05:18;6.30;;;3.50;;
17790;SDS011;9019;48.132;-1.210;2023-04-24T01:07:45;5.50;;;2.83;;
17790;SDS011;9019;48.132;-1.210;2023-04-24T01:10:14;7.40;;;3.30;;
17790;SDS011;9019;48.132;-1.210;2023-04-24T01:12:42;4.93;;;2.80;;
17790;SDS011;9019;48.132;-1.210;2023-04-24T01:15:10;4.27;;;2.90;;
17790;SDS011;9019;48.132;-1.210;2023-04-24T01:17:37;4.83;;;3.00;;
17790;SDS011;9019;48.132;-1.210;2023-04-24T01:20:05;8.83;;;3.10;;
17790;SDS011;9019;48.132;-1.210;2023-04-24T01:22:34;7.20;;;3.03;;
17790;SDS011;9019;48.132;-1.210;2023-04-24T01:25:01;6.40;;;3.57;;
17790;SDS011;9019;48.132;-1.210;2023-04-24T01:27:29;4.90;;;3.27;;
17790;SDS011;9019;48.132;-1.210;2023-04-24T01:29:56;6.60;;;3.57;;
17790;SDS011;9019;48.132;-1.210;2023-04-24T01:32:23;8.67;;;3.60;;
17790;SDS011;9019;48.132;-1.210;2023-04-24T01:34:50;8.93;;;3.80;;
17790;SDS011;9019;48.132;-1.210;2023-04-24T01:37:18;8.30;;;3.90;;
17790;SDS011;9019;48.132;-1.210;2023-04-24T01:39:46;7.03;;;3.87;;
17790;SDS011;9019;48.132;-1.210;2023-04-24T01:42:13;6.90;;;3.77;;
17790;SDS011;9019;48.132;-1.210;2023-04-24T01:44:41;8.30;;;4.37;;
17790;SDS011;9019;48.132;-1.210;2023-04-24T01:47:08;12.00;;;4.40;;
17790;SDS011;9019;48.132;-1.210;2023-04-24T01:49:36;10.63;;;4.50;;
17790;SDS011;9019;48.132;-1.210;2023-04-24T01:52:03;6.87;;;4.30;;
17790;SDS011;9019;48.132;-1.210;2023-04-24T01:54:31;7.27;;;4.27;;
17790;SDS011;9019;48.132;-1.210;2023-04-24T01:56:59;7.80;;;4.13;;
17790;SDS011;9019;48.132;-1.210;2023-04-24T01:59:27;6.80;;;4.60;;
17790;SDS011;9019;48.132;-1.210;2023-04-24T02:01:55;7.93;;;4.17;;
17790;SDS011;9019;48.132;-1.210;2023-04-24T02:04:22;7.47;;;4.10;;
17790;SDS011;9019;48.132;-1.210;2023-04-24T02:06:49;8.00;;;4.63;;
17790;SDS011;9019;48.132;-1.210;2023-04-24T02:09:16;8.90;;;4.00;;
17790;SDS011;9019;48.132;-1.210;2023-04-24T02:11:43;5.60;;;4.03;;
17790;SDS011;9019;48.132;-1.210;2023-04-24T02:14:12;5.90;;;4.20;;
17790;SDS011;9019;48.132;-1.210;2023-04-24T02:16:39;7.07;;;4.30;;
17790;SDS011;9019;48.132;-1.210;2023-04-24T02:19:06;7.23;;;4.40;;
17790;SDS011;9019;48.132;-1.210;2023-04-24T02:21:33;7.93;;;4.87;;
17790;SDS011;9019;48.132;-1.210;2023-04-24T02:24:01;7.73;;;5.07;;
17790;SDS011;9019;48.132;-1.210;2023-04-24T02:26:28;6.73;;;4.70;;
17790;SDS011;9019;48.132;-1.210;2023-04-24T02:28:56;8.53;;;4.80;;
17790;SDS011;9019;48.132;-1.210;2023-04-24T02:31:25;7.47;;;4.70;;
17790;SDS011;9019;48.132;-1.210;2023-04-24T02:33:52;8.37;;;5.20;;
17790;SDS011;9019;48.132;-1.210;2023-04-24T02:36:19;7.50;;;4.87;;
17790;SDS011;9019;48.132;-1.210;2023-04-24T02:38:47;8.03;;;4.77;;
17790;SDS011;9019;48.132;-1.210;2023-04-24T02:41:14;8.50;;;5.17;;
17790;SDS011;9019;48.132;-1.210;2023-04-24T02:43:41;9.27;;;5.53;;
17790;SDS011;9019;48.132;-1.210;2023-04-24T02:46:08;7.83;;;4.73;;
17790;SDS011;9019;48.132;-1.210;2023-04-24T02:48:37;8.80;;;5.03;;
17790;SDS011;9019;48.132;-1.210;2023-04-24T02:51:05;8.77;;;5.37;;
17790;SDS011;9019;48.132;-1.210;2023-04-24T02:53:33;9.67;;;5.80;;
17790;SDS011;9019;48.132;-1.210;2023-04-24T02:56:00;10.83;;;5.37;;
17790;SDS011;9019;48.132;-1.210;2023-04-24T02:58:27;11.10;;;5.50;;
17790;SDS011;9019;48.132;-1.210;2023-04-24T03:00:54;8.77;;;5.37;;
17790;SDS011;9019;48.132;-1.210;2023-04-24T03:03:21;9.73;;;5.27;;
17790;SDS011;9019;48.132;-1.210;2023-04-24T03:05:50;10.43;;;5.43;;
17790;SDS011;9019;48.132;-1.210;2023-04-24T03:08:17;10.47;;;5.23;;
17790;SDS011;9019;48.132;-1.210;2023-04-24T03:10:44;11.87;;;5.67;;
17790;SDS011;9019;48.132;-1.210;2023-04-24T03:13:12;10.13;;;5.47;;
17790;SDS011;9019;48.132;-1.210;2023-04-24T03:15:39;9.20;;;5.43;;
17790;SDS011;9019;48.132;-1.210;2023-04-24T03:18:06;8.40;;;5.40;;
17790;SDS011;9019;48.132;-1.210;2023-04-24T03:20:33;7.87;;;4.70;;
17790;SDS011;9019;48.132;-1.210;2023-04-24T03:23:03;10.43;;;5.13;;
17790;SDS011;9019;48.132;-1.210;2023-04-24T03:25:30;9.70;;;5.33;;
17790;SDS011;9019;48.132;-1.210;2023-04-24T03:27:57;10.30;;;5.00;;
17790;SDS011;9019;48.132;-1.210;2023-04-24T03:30:24;10.67;;;5.13;;
17790;SDS011;9019;48.132;-1.210;2023-04-24T03:32:52;11.87;;;5.50;;
17790;SDS011;9019;48.132;-1.210;2023-04-24T03:35:19;8.37;;;5.00;;
17790;SDS011;9019;48.132;-1.210;2023-04-24T03:37:47;13.40;;;5.20;;
17790;SDS011;9019;48.132;-1.210;2023-04-24T03:40:16;9.00;;;5.50;;
17790;SDS011;9019;48.132;-1.210;2023-04-24T03:42:43;11.83;;;5.60;;
17790;SDS011;9019;48.132;-1.210;2023-04-24T03:45:10;10.17;;;5.20;;
17790;SDS011;9019;48.132;-1.210;2023-04-24T03:47:37;8.70;;;5.10;;
17790;SDS011;9019;48.132;-1.210;2023-04-24T03:50:05;8.10;;;4.90;;
17790;SDS011;9019;48.132;-1.210;2023-04-24T03:52:32;10.10;;;5.20;;
17790;SDS011;9019;48.132;-1.210;2023-04-24T03:55:00;11.23;;;4.87;;
17790;SDS011;9019;48.132;-1.210;2023-04-24T03:57:29;9.60;;;4.97;;
17790;SDS011;9019;48.132;-1.210;2023-04-24T03:59:56;12.27;;;5.00;;
17790;SDS011;9019;48.132;-1.210;2023-04-24T04:02:23;8.07;;;4.60;;
17790;SDS011;9019;48.132;-1.210;2023-04-24T04:04:50;8.93;;;4.80;;
17790;SDS011;9019;48.132;-1.210;2023-04-24T04:07:18;7.90;;;4.90;;
17790;SDS011;9019;48.132;-1.210;2023-04-24T04:09:45;9.67;;;4.90;;
17790;SDS011;9019;48.132;-1.210;2023-04-24T04:12:12;10.53;;;5.27;;
17790;SDS011;9019;48.132;-1.210;2023-04-24T04:14:41;7.53;;;4.70;;
17790;SDS011;9019;48.132;-1.210;2023-04-24T04:17:08;9.20;;;4.50;;
17790;SDS011;9019;48.132;-1.210;2023-04-24T04:19:35;7.50;;;4.73;;
17790;SDS011;9019;48.132;-1.210;2023-04-24T04:22:02;8.17;;;4.43;;
17790;SDS011;9019;48.132;-1.210;2023-04-24T04:24:29;8.13;;;4.30;;
17790;SDS011;9019;48.132;-1.210;2023-04-24T04:26:56;8.07;;;4.13;;
17790;SDS011;9019;48.132;-1.210;2023-04-24T04:29:24;6.67;;;3.90;;
17790;SDS011;9019;48.132;-1.210;2023-04-24T04:31:52;11.27;;;4.43;;
17790;SDS011;9019;48.132;-1.210;2023-04-24T04:34:20;10.27;;;4.67;;
17790;SDS011;9019;48.132;-1.210;2023-04-24T04:36:47;9.53;;;4.70;;
17790;SDS011;9019;48.132;-1.210;2023-04-24T04:39:15;9.60;;;4.60;;
17790;SDS011;9019;48.132;-1.210;2023-04-24T04:41:43;10.57;;;4.20;;
17790;SDS011;9019;48.132;-1.210;2023-04-24T04:44:11;7.00;;;4.17;;
17790;SDS011;9019;48.132;-1.210;2023-04-24T04:46:39;9.20;;;4.07;;
17790;SDS011;9019;48.132;-1.210;2023-04-24T04:49:08;8.83;;;4.60;;
17790;SDS011;9019;48.132;-1.210;2023-04-24T04:51:36;8.80;;;4.40;;
17790;SDS011;9019;48.132;-1.210;2023-04-24T04:54:04;10.83;;;4.40;;
17790;SDS011;9019;48.132;-1.210;2023-04-24T04:56:32;9.30;;;4.30;;
17790;SDS011;9019;48.132;-1.210;2023-04-24T04:58:59;8.57;;;4.37;;
17790;SDS011;9019;48.132;-1.210;2023-04-24T05:01:26;8.37;;;4.17;;
17790;SDS011;9019;48.132;-1.210;2023-04-24T05:03:53;7.13;;;4.03;;
17790;SDS011;9019;48.132;-1.210;2023-04-24T05:06:22;11.13;;;4.83;;
17790;SDS011;9019;48.132;-1.210;2023-04-24T05:08:49;8.27;;;4.70;;
17790;SDS011;9019;48.132;-1.210;2023-04-24T05:11:16;8.10;;;5.50;;
17790;SDS011;9019;48.132;-1.210;2023-04-24T05:13:43;7.20;;;4.63;;
17790;SDS011;9019;48.132;-1.210;2023-04-24T05:16:10;10.37;;;4.40;;
17790;SDS011;9019;48.132;-1.210;2023-04-24T05:18:38;6.63;;;4.20;;
17790;SDS011;9019;48.132;-1.210;2023-04-24T05:21:05;5.60;;;4.40;;
17790;SDS011;9019;48.132;-1.210;2023-04-24T05:23:33;10.13;;;4.63;;
17790;SDS011;9019;48.132;-1.210;2023-04-24T05:26:00;8.50;;;4.70;;
17790;SDS011;9019;48.132;-1.210;2023-04-24T05:28:28;7.17;;;4.67;;
17790;SDS011;9019;48.132;-1.210;2023-04-24T05:30:55;8.13;;;4.20;;
17790;SDS011;9019;48.132;-1.210;2023-04-24T05:33:24;11.33;;;4.67;;
17790;SDS011;9019;48.132;-1.210;2023-04-24T05:35:51;5.60;;;4.27;;
17790;SDS011;9019;48.132;-1.210;2023-04-24T05:38:18;10.70;;;4.70;;
17790;SDS011;9019;48.132;-1.210;2023-04-24T05:40:47;9.23;;;4.30;;
17790;SDS011;9019;48.132;-1.210;2023-04-24T05:43:14;9.17;;;4.10;;
17790;SDS011;9019;48.132;-1.210;2023-04-24T05:45:41;5.80;;;4.00;;
17790;SDS011;9019;48.132;-1.210;2023-04-24T05:48:08;7.37;;;4.00;;
17790;SDS011;9019;48.132;-1.210;2023-04-24T05:50:36;7.33;;;4.20;;
17790;SDS011;9019;48.132;-1.210;2023-04-24T05:53:03;9.17;;;4.07;;
17790;SDS011;9019;48.132;-1.210;2023-04-24T05:55:32;7.87;;;3.90;;
17790;SDS011;9019;48.132;-1.210;2023-04-24T05:58:00;8.10;;;4.10;;
17790;SDS011;9019;48.132;-1.210;2023-04-24T06:00:28;8.07;;;4.00;;
17790;SDS011;9019;48.132;-1.210;2023-04-24T06:02:55;9.50;;;4.30;;
17790;SDS011;9019;48.132;-1.210;2023-04-24T06:05:22;8.60;;;4.17;;
17790;SDS011;9019;48.132;-1.210;2023-04-24T06:07:49;11.10;;;4.80;;
17790;SDS011;9019;48.132;-1.210;2023-04-24T06:10:17;8.47;;;4.60;;
17790;SDS011;9019;48.132;-1.210;2023-04-24T06:12:44;9.10;;;4.60;;
17790;SDS011;9019;48.132;-1.210;2023-04-24T06:15:13;6.67;;;4.40;;
17790;SDS011;9019;48.132;-1.210;2023-04-24T06:17:40;8.10;;;4.13;;
17790;SDS011;9019;48.132;-1.210;2023-04-24T06:20:07;8.10;;;4.23;;
17790;SDS011;9019;48.132;-1.210;2023-04-24T06:22:36;7.63;;;4.50;;
17790;SDS011;9019;48.132;-1.210;2023-04-24T06:25:05;9.53;;;4.00;;
17790;SDS011;9019;48.132;-1.210;2023-04-24T06:27:32;8.80;;;3.77;;
17790;SDS011;9019;48.132;-1.210;2023-04-24T06:30:00;6.40;;;4.10;;
17790;SDS011;9019;48.132;-1.210;2023-04-24T06:32:28;7.37;;;3.57;;
17790;SDS011;9019;48.132;-1.210;2023-04-24T06:34:56;5.20;;;3.30;;
17790;SDS011;9019;48.132;-1.210;2023-04-24T06:37:24;6.53;;;3.60;;
17790;SDS011;9019;48.132;-1.210;2023-04-24T06:39:51;7.23;;;3.40;;
17790;SDS011;9019;48.132;-1.210;2023-04-24T06:42:18;5.57;;;2.63;;
17790;SDS011;9019;48.132;-1.210;2023-04-24T06:44:47;6.10;;;2.63;;
17790;SDS011;9019;48.132;-1.210;2023-04-24T06:47:14;4.60;;;2.80;;
17790;SDS011;9019;48.132;-1.210;2023-04-24T06:49:42;6.93;;;2.72;;
17790;SDS011;9019;48.132;-1.210;2023-04-24T06:52:09;4.20;;;2.35;;
17790;SDS011;9019;48.132;-1.210;2023-04-24T06:54:37;5.63;;;2.30;;
17790;SDS011;9019;48.132;-1.210;2023-04-24T06:57:04;4.38;;;2.40;;
17790;SDS011;9019;48.132;-1.210;2023-04-24T06:59:31;6.63;;;3.00;;
17790;SDS011;9019;48.132;-1.210;2023-04-24T07:01:58;4.93;;;2.67;;
17790;SDS011;9019;48.132;-1.210;2023-04-24T07:04:26;3.72;;;2.58;;
17790;SDS011;9019;48.132;-1.210;2023-04-24T07:06:54;3.92;;;2.65;;
17790;SDS011;9019;48.132;-1.210;2023-04-24T07:09:22;5.95;;;2.85;;
17790;SDS011;9019;48.132;-1.210;2023-04-24T07:11:50;5.40;;;3.08;;
17790;SDS011;9019;48.132;-1.210;2023-04-24T07:14:17;4.35;;;2.85;;
17790;SDS011;9019;48.132;-1.210;2023-04-24T07:16:45;5.53;;;2.88;;
17790;SDS011;9019;48.132;-1.210;2023-04-24T07:19:12;3.78;;;2.70;;
17790;SDS011;9019;48.132;-1.210;2023-04-24T07:21:40;5.38;;;2.95;;
17790;SDS011;9019;48.132;-1.210;2023-04-24T07:24:08;5.40;;;3.30;;
17790;SDS011;9019;48.132;-1.210;2023-04-24T07:26:36;5.65;;;2.70;;
17790;SDS011;9019;48.132;-1.210;2023-04-24T07:29:04;4.60;;;2.70;;
17790;SDS011;9019;48.132;-1.210;2023-04-24T07:31:31;3.72;;;2.70;;
17790;SDS011;9019;48.132;-1.210;2023-04-24T07:33:58;6.32;;;2.90;;
17790;SDS011;9019;48.132;-1.210;2023-04-24T07:36:25;5.80;;;3.05;;
17790;SDS011;9019;48.132;-1.210;2023-04-24T07:38:53;4.18;;;2.92;;
17790;SDS011;9019;48.132;-1.210;2023-04-24T07:41:23;4.47;;;2.92;;
17790;SDS011;9019;48.132;-1.210;2023-04-24T07:43:50;6.75;;;3.22;;
17790;SDS011;9019;48.132;-1.210;2023-04-24T07:46:18;5.82;;;2.90;;
17790;SDS011;9019;48.132;-1.210;2023-04-24T07:48:45;5.05;;;3.22;;
17790;SDS011;9019;48.132;-1.210;2023-04-24T07:51:14;4.35;;;2.80;;
17790;SDS011;9019;48.132;-1.210;2023-04-24T07:53:41;5.60;;;3.00;;
17790;SDS011;9019;48.132;-1.210;2023-04-24T07:56:08;4.18;;;3.15;;
17790;SDS011;9019;48.132;-1.210;2023-04-24T07:58:37;5.10;;;2.50;;
17790;SDS011;9019;48.132;-1.210;2023-04-24T08:01:05;5.18;;;2.58;;
17790;SDS011;9019;48.132;-1.210;2023-04-24T08:03:32;3.67;;;2.50;;
17790;SDS011;9019;48.132;-1.210;2023-04-24T08:05:59;5.82;;;2.90;;
17790;SDS011;9019;48.132;-1.210;2023-04-24T08:08:26;4.07;;;2.50;;
17790;SDS011;9019;48.132;-1.210;2023-04-24T08:10:53;5.05;;;2.40;;
17790;SDS011;9019;48.132;-1.210;2023-04-24T08:13:20;4.93;;;2.80;;
17790;SDS011;9019;48.132;-1.210;2023-04-24T08:15:49;5.00;;;2.80;;
17790;SDS011;9019;48.132;-1.210;2023-04-24T08:18:16;3.50;;;2.47;;
17790;SDS011;9019;48.132;-1.210;2023-04-24T08:20:43;4.03;;;2.17;;
17790;SDS011;9019;48.132;-1.210;2023-04-24T08:23:11;4.22;;;2.42;;
17790;SDS011;9019;48.132;-1.210;2023-04-24T08:25:38;3.60;;;2.15;;
17790;SDS011;9019;48.132;-1.210;2023-04-24T08:28:06;2.65;;;2.20;;
17790;SDS011;9019;48.132;-1.210;2023-04-24T08:30:33;3.75;;;2.40;;
17790;SDS011;9019;48.132;-1.210;2023-04-24T08:33:02;2.83;;;2.13;;
17790;SDS011;9019;48.132;-1.210;2023-04-24T08:35:29;4.32;;;2.70;;
17790;SDS011;9019;48.132;-1.210;2023-04-24T08:37:56;5.43;;;2.60;;
17790;SDS011;9019;48.132;-1.210;2023-04-24T08:40:26;4.07;;;2.67;;
17790;SDS011;9019;48.132;-1.210;2023-04-24T08:42:54;3.80;;;2.22;;
17790;SDS011;9019;48.132;-1.210;2023-04-24T08:45:22;4.70;;;2.17;;
17790;SDS011;9019;48.132;-1.210;2023-04-24T08:47:51;5.22;;;1.90;;
17790;SDS011;9019;48.132;-1.210;2023-04-24T08:50:21;2.85;;;2.00;;
17790;SDS011;9019;48.132;-1.210;2023-04-24T08:52:49;4.82;;;2.25;;
17790;SDS011;9019;48.132;-1.210;2023-04-24T08:55:18;5.38;;;2.25;;
17790;SDS011;9019;48.132;-1.210;2023-04-24T08:57:45;5.53;;;2.40;;
17790;SDS011;9019;48.132;-1.210;2023-04-24T09:00:16;3.35;;;2.08;;
17790;SDS011;9019;48.132;-1.210;2023-04-24T09:02:43;3.30;;;2.58;;
17790;SDS011;9019;48.132;-1.210;2023-04-24T09:05:12;4.57;;;2.33;;
17790;SDS011;9019;48.132;-1.210;2023-04-24T09:07:41;5.13;;;2.60;;
17790;SDS011;9019;48.132;-1.210;2023-04-24T09:10:11;3.78;;;2.30;;
17790;SDS011;9019;48.132;-1.210;2023-04-24T09:12:38;2.63;;;2.10;;
17790;SDS011;9019;48.132;-1.210;2023-04-24T09:15:06;3.60;;;2.45;;
17790;SDS011;9019;48.132;-1.210;2023-04-24T09:17:34;5.35;;;2.53;;
17790;SDS011;9019;48.132;-1.210;2023-04-24T09:20:01;4.35;;;2.60;;
17790;SDS011;9019;48.132;-1.210;2023-04-24T09:22:29;6.65;;;2.30;;
17790;SDS011;9019;48.132;-1.210;2023-04-24T09:25:02;6.38;;;2.60;;
17790;SDS011;9019;48.132;-1.210;2023-04-24T09:27:30;6.50;;;2.60;;
17790;SDS011;9019;48.132;-1.210;2023-04-24T09:29:58;5.15;;;2.70;;
17790;SDS011;9019;48.132;-1.210;2023-04-24T09:32:25;5.30;;;3.00;;
17790;SDS011;9019;48.132;-1.210;2023-04-24T09:35:08;4.53;;;2.97;;
17790;SDS011;9019;48.132;-1.210;2023-04-24T09:37:36;4.35;;;2.88;;
17790;SDS011;9019;48.132;-1.210;2023-04-24T09:40:08;3.70;;;2.78;;
17790;SDS011;9019;48.132;-1.210;2023-04-24T09:42:36;6.15;;;3.30;;
17790;SDS011;9019;48.132;-1.210;2023-04-24T09:45:04;5.32;;;2.97;;
17790;SDS011;9019;48.132;-1.210;2023-04-24T09:47:35;5.38;;;2.70;;
17790;SDS011;9019;48.132;-1.210;2023-04-24T09:50:09;3.95;;;2.70;;
17790;SDS011;9019;48.132;-1.210;2023-04-24T09:52:39;5.20;;;2.72;;
17790;SDS011;9019;48.132;-1.210;2023-04-24T09:55:11;6.93;;;2.40;;
17790;SDS011;9019;48.132;-1.210;2023-04-24T09:57:46;4.63;;;2.50;;
17790;SDS011;9019;48.132;-1.210;2023-04-24T10:00:17;5.15;;;2.80;;
17790;SDS011;9019;48.132;-1.210;2023-04-24T10:02:49;5.18;;;2.80;;
17790;SDS011;9019;48.132;-1.210;2023-04-24T10:05:16;5.97;;;2.55;;
17790;SDS011;9019;48.132;-1.210;2023-04-24T10:07:44;4.18;;;2.60;;
17790;SDS011;9019;48.132;-1.210;2023-04-24T10:10:12;4.65;;;2.60;;
17790;SDS011;9019;48.132;-1.210;2023-04-24T10:12:40;5.63;;;2.40;;
17790;SDS011;9019;48.132;-1.210;2023-04-24T10:15:08;2.85;;;2.10;;
17790;SDS011;9019;48.132;-1.210;2023-04-24T10:17:37;4.97;;;2.20;;
17790;SDS011;9019;48.132;-1.210;2023-04-24T10:20:05;5.13;;;2.47;;
17790;SDS011;9019;48.132;-1.210;2023-04-24T10:22:33;5.72;;;2.67;;
17790;SDS011;9019;48.132;-1.210;2023-04-24T10:25:00;5.75;;;2.33;;
17790;SDS011;9019;48.132;-1.210;2023-04-24T10:27:29;7.07;;;2.67;;
17790;SDS011;9019;48.132;-1.210;2023-04-24T10:29:57;4.10;;;2.40;;
17790;SDS011;9019;48.132;-1.210;2023-04-24T10:32:25;3.83;;;2.50;;
17790;SDS011;9019;48.132;-1.210;2023-04-24T10:34:52;6.47;;;2.70;;
17790;SDS011;9019;48.132;-1.210;2023-04-24T10:37:21;5.82;;;2.80;;
17790;SDS011;9019;48.132;-1.210;2023-04-24T10:39:48;3.65;;;2.53;;
17790;SDS011;9019;48.132;-1.210;2023-04-24T10:42:19;6.45;;;2.85;;
17790;SDS011;9019;48.132;-1.210;2023-04-24T10:44:48;6.50;;;3.00;;
17790;SDS011;9019;48.132;-1.210;2023-04-24T10:47:15;5.27;;;3.30;;
17790;SDS011;9019;48.132;-1.210;2023-04-24T10:49:42;6.70;;;3.20;;
17790;SDS011;9019;48.132;-1.210;2023-04-24T10:52:10;4.30;;;2.60;;
17790;SDS011;9019;48.132;-1.210;2023-04-24T10:54:41;5.97;;;2.57;;
17790;SDS011;9019;48.132;-1.210;2023-04-24T10:57:27;6.50;;;2.60;;
17790;SDS011;9019;48.132;-1.210;2023-04-24T11:00:12;7.97;;;2.92;;
17790;SDS011;9019;48.132;-1.210;2023-04-24T11:02:40;5.35;;;2.28;;
17790;SDS011;9019;48.132;-1.210;2023-04-24T11:05:14;5.25;;;2.70;;
17790;SDS011;9019;48.132;-1.210;2023-04-24T11:10:27;6.70;;;2.63;;
17790;SDS011;9019;48.132;-1.210;2023-04-24T11:12:54;6.60;;;2.75;;
17790;SDS011;9019;48.132;-1.210;2023-04-24T11:15:23;7.85;;;2.50;;
17790;SDS011;9019;48.132;-1.210;2023-04-24T11:17:50;6.15;;;2.78;;
17790;SDS011;9019;48.132;-1.210;2023-04-24T11:20:22;4.85;;;2.30;;
17790;SDS011;9019;48.132;-1.210;2023-04-24T11:22:52;6.20;;;2.60;;
17790;SDS011;9019;48.132;-1.210;2023-04-24T11:25:22;9.23;;;3.08;;
17790;SDS011;9019;48.132;-1.210;2023-04-24T11:27:50;7.25;;;2.58;;
17790;SDS011;9019;48.132;-1.210;2023-04-24T11:30:17;6.07;;;2.60;;
17790;SDS011;9019;48.132;-1.210;2023-04-24T11:32:48;5.72;;;2.75;;
17790;SDS011;9019;48.132;-1.210;2023-04-24T11:35:18;7.30;;;2.93;;
17790;SDS011;9019;48.132;-1.210;2023-04-24T11:37:46;7.45;;;3.05;;
17790;SDS011;9019;48.132;-1.210;2023-04-24T11:40:15;9.53;;;2.90;;
17790;SDS011;9019;48.132;-1.210;2023-04-24T11:42:43;6.30;;;2.55;;
17790;SDS011;9019;48.132;-1.210;2023-04-24T11:45:11;7.43;;;3.20;;
17790;SDS011;9019;48.132;-1.210;2023-04-24T11:47:38;4.82;;;2.63;;
17790;SDS011;9019;48.132;-1.210;2023-04-24T11:50:08;5.60;;;3.10;;
17790;SDS011;9019;48.132;-1.210;2023-04-24T11:52:36;8.25;;;3.22;;
17790;SDS011;9019;48.132;-1.210;2023-04-24T11:55:05;6.15;;;2.63;;
17790;SDS011;9019;48.132;-1.210;2023-04-24T11:57:33;7.60;;;2.90;;
17790;SDS011;9019;48.132;-1.210;2023-04-24T12:00:01;6.55;;;2.88;;
17790;SDS011;9019;48.132;-1.210;2023-04-24T12:02:30;6.15;;;2.78;;
17790;SDS011;9019;48.132;-1.210;2023-04-24T12:04:57;7.13;;;2.50;;
17790;SDS011;9019;48.132;-1.210;2023-04-24T12:07:25;5.63;;;2.60;;
17790;SDS011;9019;48.132;-1.210;2023-04-24T12:09:56;4.87;;;2.80;;
17790;SDS011;9019;48.132;-1.210;2023-04-24T12:12:25;6.20;;;2.50;;
17790;SDS011;9019;48.132;-1.210;2023-04-24T12:14:53;9.53;;;2.53;;
17790;SDS011;9019;48.132;-1.210;2023-04-24T12:17:24;9.17;;;2.57;;
17790;SDS011;9019;48.132;-1.210;2023-04-24T12:19:51;5.57;;;2.43;;
17790;SDS011;9019;48.132;-1.210;2023-04-24T12:22:19;5.20;;;2.43;;
17790;SDS011;9019;48.132;-1.210;2023-04-24T12:24:56;6.90;;;2.40;;
17790;SDS011;9019;48.132;-1.210;2023-04-24T12:27:24;6.87;;;2.93;;
17790;SDS011;9019;48.132;-1.210;2023-04-24T12:29:51;7.60;;;2.80;;
17790;SDS011;9019;48.132;-1.210;2023-04-24T12:32:19;7.33;;;2.80;;
17790;SDS011;9019;48.132;-1.210;2023-04-24T12:34:46;6.30;;;2.87;;
17790;SDS011;9019;48.132;-1.210;2023-04-24T12:37:14;8.50;;;2.77;;
17790;SDS011;9019;48.132;-1.210;2023-04-24T12:39:44;6.47;;;2.97;;
17790;SDS011;9019;48.132;-1.210;2023-04-24T12:42:13;7.30;;;2.50;;
17790;SDS011;9019;48.132;-1.210;2023-04-24T12:44:40;7.10;;;2.70;;
17790;SDS011;9019;48.132;-1.210;2023-04-24T12:47:07;6.80;;;2.57;;
17790;SDS011;9019;48.132;-1.210;2023-04-24T12:49:35;4.95;;;2.30;;
17790;SDS011;9019;48.132;-1.210;2023-04-24T12:52:02;5.65;;;2.88;;
17790;SDS011;9019;48.132;-1.210;2023-04-24T12:54:32;8.30;;;2.80;;
17790;SDS011;9019;48.132;-1.210;2023-04-24T12:56:59;5.35;;;2.40;;
17790;SDS011;9019;48.132;-1.210;2023-04-24T12:59:28;6.75;;;2.50;;
17790;SDS011;9019;48.132;-1.210;2023-04-24T13:01:55;4.15;;;2.45;;
17790;SDS011;9019;48.132;-1.210;2023-04-24T13:04:22;6.40;;;2.80;;
17790;SDS011;9019;48.132;-1.210;2023-04-24T13:06:49;5.20;;;2.55;;
17790;SDS011;9019;48.132;-1.210;2023-04-24T13:09:16;5.80;;;2.40;;
17790;SDS011;9019;48.132;-1.210;2023-04-24T13:11:44;7.88;;;2.55;;
17790;SDS011;9019;48.132;-1.210;2023-04-24T13:14:11;9.73;;;2.90;;
17790;SDS011;9019;48.132;-1.210;2023-04-24T13:16:39;8.07;;;3.03;;
17790;SDS011;9019;48.132;-1.210;2023-04-24T13:19:06;6.37;;;2.60;;
17790;SDS011;9019;48.132;-1.210;2023-04-24T13:21:34;5.97;;;2.55;;
17790;SDS011;9019;48.132;-1.210;2023-04-24T13:24:01;5.90;;;2.50;;
17790;SDS011;9019;48.132;-1.210;2023-04-24T13:26:29;4.68;;;2.22;;
17790;SDS011;9019;48.132;-1.210;2023-04-24T13:28:57;6.18;;;2.53;;
17790;SDS011;9019;48.132;-1.210;2023-04-24T13:31:24;8.10;;;2.50;;
17790;SDS011;9019;48.132;-1.210;2023-04-24T13:33:52;5.97;;;2.42;;
17790;SDS011;9019;48.132;-1.210;2023-04-24T13:36:19;6.32;;;2.28;;
17790;SDS011;9019;48.132;-1.210;2023-04-24T13:38:47;7.93;;;2.60;;
17790;SDS011;9019;48.132;-1.210;2023-04-24T13:41:14;4.10;;;2.10;;
17790;SDS011;9019;48.132;-1.210;2023-04-24T13:43:41;5.80;;;2.63;;
17790;SDS011;9019;48.132;-1.210;2023-04-24T13:46:08;6.57;;;2.30;;
17790;SDS011;9019;48.132;-1.210;2023-04-24T13:48:35;3.75;;;1.88;;
17790;SDS011;9019;48.132;-1.210;2023-04-24T13:51:04;5.15;;;2.20;;
17790;SDS011;9019;48.132;-1.210;2023-04-24T13:53:31;8.23;;;3.00;;
17790;SDS011;9019;48.132;-1.210;2023-04-24T13:56:01;8.52;;;2.55;;
17790;SDS011;9019;48.132;-1.210;2023-04-24T13:58:28;6.72;;;2.25;;
17790;SDS011;9019;48.132;-1.210;2023-04-24T14:00:55;4.18;;;2.00;;
17790;SDS011;9019;48.132;-1.210;2023-04-24T14:03:22;4.85;;;2.15;;
17790;SDS011;9019;48.132;-1.210;2023-04-24T14:05:49;3.90;;;2.00;;
17790;SDS011;9019;48.132;-1.210;2023-04-24T14:08:18;5.75;;;2.28;;
17790;SDS011;9019;48.132;-1.210;2023-04-24T14:10:45;9.02;;;2.50;;
17790;SDS011;9019;48.132;-1.210;2023-04-24T14:13:12;6.47;;;2.20;;
17790;SDS011;9019;48.132;-1.210;2023-04-24T14:15:39;7.28;;;2.33;;
17790;SDS011;9019;48.132;-1.210;2023-04-24T14:18:07;4.55;;;2.35;;
17790;SDS011;9019;48.132;-1.210;2023-04-24T14:20:34;4.65;;;2.10;;
17790;SDS011;9019;48.132;-1.210;2023-04-24T14:23:01;5.43;;;2.10;;
17790;SDS011;9019;48.132;-1.210;2023-04-24T14:25:30;5.80;;;2.55;;
17790;SDS011;9019;48.132;-1.210;2023-04-24T14:27:57;3.60;;;1.83;;
17790;SDS011;9019;48.132;-1.210;2023-04-24T14:30:24;4.90;;;2.22;;
17790;SDS011;9019;48.132;-1.210;2023-04-24T14:32:52;3.80;;;1.88;;
17790;SDS011;9019;48.132;-1.210;2023-04-24T14:35:19;5.05;;;1.92;;
17790;SDS011;9019;48.132;-1.210;2023-04-24T14:37:46;5.93;;;2.03;;
17790;SDS011;9019;48.132;-1.210;2023-04-24T14:40:14;6.32;;;2.22;;
17790;SDS011;9019;48.132;-1.210;2023-04-24T14:42:42;4.40;;;2.00;;
17790;SDS011;9019;48.132;-1.210;2023-04-24T14:45:10;4.70;;;1.90;;
17790;SDS011;9019;48.132;-1.210;2023-04-24T14:47:37;3.97;;;1.83;;
17790;SDS011;9019;48.132;-1.210;2023-04-24T14:50:05;5.03;;;2.10;;
17790;SDS011;9019;48.132;-1.210;2023-04-24T14:52:33;6.45;;;2.20;;